sensor_id;sensor_type;location;lat;lon;timestamp;P1;durP1;ratioP1;P2;durP2;ratioP2
8317;SDS011;4196;48.926;8.964;2024-03-25T00:02:01;5.47;;;1.80;;
8317;SDS011;4196;48.926;8.964;2024-03-25T00:04:46;2.03;;;1.63;;
8317;SDS011;4196;48.926;8.964;2024-03-25T00:07:31;6.50;;;1.80;;
8317;SDS011;4196;48.926;8.964;2024-03-25T00:10:17;4.90;;;2.13;;
8317;SDS011;4196;48.926;8.964;2024-03-25T00:13:05;3.13;;;1.93;;
8317;SDS011;4196;48.926;8.964;2024-03-25T00:15:51;2.10;;;1.60;;
8317;SDS011;4196;48.926;8.964;2024-03-25T00:18:36;2.70;;;1.60;;
8317;SDS011;4196;48.926;8.964;2024-03-25T00:21:21;3.47;;;2.50;;
8317;SDS011;4196;48.926;8.964;2024-03-25T00:24:07;3.23;;;2.10;;
8317;SDS011;4196;48.926;8.964;2024-03-25T00:26:52;3.67;;;2.20;;
8317;SDS011;4196;48.926;8.964;2024-03-25T00:29:38;2.77;;;1.67;;
8317;SDS011;4196;48.926;8.964;2024-03-25T00:32:24;2.57;;;1.67;;
8317;SDS011;4196;48.926;8.964;2024-03-25T00:35:09;4.67;;;1.90;;
8317;SDS011;4196;48.926;8.964;2024-03-25T00:37:55;3.57;;;2.10;;
8317;SDS011;4196;48.926;8.964;2024-03-25T00:40:40;2.30;;;1.60;;
8317;SDS011;4196;48.926;8.964;2024-03-25T00:43:26;12.63;;;3.57;;
8317;SDS011;4196;48.926;8.964;2024-03-25T00:46:11;4.70;;;1.97;;
8317;SDS011;4196;48.926;8.964;2024-03-25T00:48:56;3.40;;;1.70;;
8317;SDS011;4196;48.926;8.964;2024-03-25T00:51:41;2.50;;;1.97;;
8317;SDS011;4196;48.926;8.964;2024-03-25T00:54:26;2.57;;;2.00;;
8317;SDS011;4196;48.926;8.964;2024-03-25T00:57:12;5.87;;;2.07;;
8317;SDS011;4196;48.926;8.964;2024-03-25T00:59:57;3.23;;;2.40;;
8317;SDS011;4196;48.926;8.964;2024-03-25T01:02:43;3.10;;;2.80;;
8317;SDS011;4196;48.926;8.964;2024-03-25T01:05:29;4.17;;;1.90;;
8317;SDS011;4196;48.926;8.964;2024-03-25T01:08:14;2.67;;;1.90;;
8317;SDS011;4196;48.926;8.964;2024-03-25T01:11:00;7.07;;;1.77;;
8317;SDS011;4196;48.926;8.964;2024-03-25T01:13:45;10.73;;;2.47;;
8317;SDS011;4196;48.926;8.964;2024-03-25T01:16:31;4.93;;;2.20;;
8317;SDS011;4196;48.926;8.964;2024-03-25T01:19:18;4.27;;;1.70;;
8317;SDS011;4196;48.926;8.964;2024-03-25T01:22:03;4.30;;;2.07;;
8317;SDS011;4196;48.926;8.964;2024-03-25T01:24:50;4.27;;;1.70;;
8317;SDS011;4196;48.926;8.964;2024-03-25T01:27:35;7.23;;;1.83;;
8317;SDS011;4196;48.926;8.964;2024-03-25T01:30:21;4.40;;;1.80;;
8317;SDS011;4196;48.926;8.964;2024-03-25T01:33:07;4.13;;;2.10;;
8317;SDS011;4196;48.926;8.964;2024-03-25T01:35:52;3.33;;;2.00;;
8317;SDS011;4196;48.926;8.964;2024-03-25T01:38:40;5.47;;;2.00;;
8317;SDS011;4196;48.926;8.964;2024-03-25T01:41:26;3.27;;;2.00;;
8317;SDS011;4196;48.926;8.964;2024-03-25T01:44:11;2.47;;;1.40;;
8317;SDS011;4196;48.926;8.964;2024-03-25T01:46:57;5.23;;;2.33;;
8317;SDS011;4196;48.926;8.964;2024-03-25T01:49:42;3.07;;;1.93;;
8317;SDS011;4196;48.926;8.964;2024-03-25T01:52:28;3.23;;;2.00;;
8317;SDS011;4196;48.926;8.964;2024-03-25T01:55:17;6.37;;;2.10;;
8317;SDS011;4196;48.926;8.964;2024-03-25T01:58:06;4.13;;;1.87;;
8317;SDS011;4196;48.926;8.964;2024-03-25T02:00:53;2.70;;;1.90;;
8317;SDS011;4196;48.926;8.964;2024-03-25T02:03:40;3.93;;;3.07;;
8317;SDS011;4196;48.926;8.964;2024-03-25T02:06:27;3.13;;;1.90;;
8317;SDS011;4196;48.926;8.964;2024-03-25T02:09:13;2.43;;;2.23;;
8317;SDS011;4196;48.926;8.964;2024-03-25T02:12:00;5.70;;;2.23;;
8317;SDS011;4196;48.926;8.964;2024-03-25T02:14:47;2.13;;;1.90;;
8317;SDS011;4196;48.926;8.964;2024-03-25T02:17:32;1.97;;;1.60;;
8317;SDS011;4196;48.926;8.964;2024-03-25T02:20:17;2.80;;;1.87;;
8317;SDS011;4196;48.926;8.964;2024-03-25T02:23:03;2.40;;;2.03;;
8317;SDS011;4196;48.926;8.964;2024-03-25T02:25:52;6.13;;;2.30;;
8317;SDS011;4196;48.926;8.964;2024-03-25T02:28:39;2.17;;;1.97;;
8317;SDS011;4196;48.926;8.964;2024-03-25T02:31:24;3.57;;;2.20;;
8317;SDS011;4196;48.926;8.964;2024-03-25T02:34:09;3.87;;;2.20;;
8317;SDS011;4196;48.926;8.964;2024-03-25T02:36:54;4.30;;;2.07;;
8317;SDS011;4196;48.926;8.964;2024-03-25T02:39:41;7.30;;;2.10;;
8317;SDS011;4196;48.926;8.964;2024-03-25T02:42:26;3.60;;;1.90;;
8317;SDS011;4196;48.926;8.964;2024-03-25T02:45:13;5.33;;;2.57;;
8317;SDS011;4196;48.926;8.964;2024-03-25T02:47:59;2.17;;;1.80;;
8317;SDS011;4196;48.926;8.964;2024-03-25T02:50:45;3.70;;;1.80;;
8317;SDS011;4196;48.926;8.964;2024-03-25T02:53:31;3.20;;;2.10;;
8317;SDS011;4196;48.926;8.964;2024-03-25T02:56:16;3.40;;;2.00;;
8317;SDS011;4196;48.926;8.964;2024-03-25T02:59:02;7.20;;;2.43;;
8317;SDS011;4196;48.926;8.964;2024-03-25T03:01:47;5.27;;;2.63;;
8317;SDS011;4196;48.926;8.964;2024-03-25T03:04:32;4.93;;;1.97;;
8317;SDS011;4196;48.926;8.964;2024-03-25T03:07:18;5.37;;;2.03;;
8317;SDS011;4196;48.926;8.964;2024-03-25T03:10:03;3.40;;;1.90;;
8317;SDS011;4196;48.926;8.964;2024-03-25T03:12:49;5.13;;;2.93;;
8317;SDS011;4196;48.926;8.964;2024-03-25T03:15:34;2.60;;;2.00;;
8317;SDS011;4196;48.926;8.964;2024-03-25T03:18:19;9.50;;;3.37;;
8317;SDS011;4196;48.926;8.964;2024-03-25T03:21:04;2.57;;;1.83;;
8317;SDS011;4196;48.926;8.964;2024-03-25T03:23:50;6.73;;;2.93;;
8317;SDS011;4196;48.926;8.964;2024-03-25T03:26:35;2.10;;;1.90;;
8317;SDS011;4196;48.926;8.964;2024-03-25T03:29:21;2.90;;;1.80;;
8317;SDS011;4196;48.926;8.964;2024-03-25T03:32:06;4.03;;;2.20;;
8317;SDS011;4196;48.926;8.964;2024-03-25T03:34:52;4.67;;;1.87;;
8317;SDS011;4196;48.926;8.964;2024-03-25T03:37:37;4.07;;;2.00;;
8317;SDS011;4196;48.926;8.964;2024-03-25T03:40:22;5.07;;;2.07;;
8317;SDS011;4196;48.926;8.964;2024-03-25T03:43:08;5.07;;;2.10;;
8317;SDS011;4196;48.926;8.964;2024-03-25T03:45:53;4.10;;;2.00;;
8317;SDS011;4196;48.926;8.964;2024-03-25T03:48:38;5.43;;;2.20;;
8317;SDS011;4196;48.926;8.964;2024-03-25T03:51:23;2.57;;;1.87;;
8317;SDS011;4196;48.926;8.964;2024-03-25T03:54:09;2.30;;;1.70;;
8317;SDS011;4196;48.926;8.964;2024-03-25T03:56:54;5.67;;;2.50;;
8317;SDS011;4196;48.926;8.964;2024-03-25T03:59:39;2.93;;;1.93;;
8317;SDS011;4196;48.926;8.964;2024-03-25T04:02:25;2.70;;;2.17;;
8317;SDS011;4196;48.926;8.964;2024-03-25T04:05:12;4.03;;;2.00;;
8317;SDS011;4196;48.926;8.964;2024-03-25T04:07:57;5.77;;;2.20;;
8317;SDS011;4196;48.926;8.964;2024-03-25T04:10:43;2.00;;;1.80;;
8317;SDS011;4196;48.926;8.964;2024-03-25T04:13:30;4.80;;;2.70;;
8317;SDS011;4196;48.926;8.964;2024-03-25T04:16:15;2.87;;;2.00;;
8317;SDS011;4196;48.926;8.964;2024-03-25T04:19:00;7.40;;;2.93;;
8317;SDS011;4196;48.926;8.964;2024-03-25T04:21:46;5.00;;;2.23;;
8317;SDS011;4196;48.926;8.964;2024-03-25T04:24:31;5.63;;;3.00;;
8317;SDS011;4196;48.926;8.964;2024-03-25T04:27:17;2.60;;;2.03;;
8317;SDS011;4196;48.926;8.964;2024-03-25T04:30:05;16.10;;;4.57;;
8317;SDS011;4196;48.926;8.964;2024-03-25T04:32:53;3.33;;;2.10;;
8317;SDS011;4196;48.926;8.964;2024-03-25T04:35:38;4.03;;;2.63;;
8317;SDS011;4196;48.926;8.964;2024-03-25T04:38:23;3.30;;;2.43;;
8317;SDS011;4196;48.926;8.964;2024-03-25T04:41:09;5.77;;;2.37;;
8317;SDS011;4196;48.926;8.964;2024-03-25T04:43:55;4.50;;;2.73;;
8317;SDS011;4196;48.926;8.964;2024-03-25T04:46:40;5.83;;;2.60;;
8317;SDS011;4196;48.926;8.964;2024-03-25T04:49:25;3.97;;;2.33;;
8317;SDS011;4196;48.926;8.964;2024-03-25T04:52:14;1.97;;;1.70;;
8317;SDS011;4196;48.926;8.964;2024-03-25T04:55:02;3.37;;;1.80;;
8317;SDS011;4196;48.926;8.964;2024-03-25T04:57:48;6.23;;;2.53;;
8317;SDS011;4196;48.926;8.964;2024-03-25T05:00:33;4.97;;;1.97;;
8317;SDS011;4196;48.926;8.964;2024-03-25T05:03:18;8.23;;;2.60;;
8317;SDS011;4196;48.926;8.964;2024-03-25T05:06:04;6.73;;;2.50;;
8317;SDS011;4196;48.926;8.964;2024-03-25T05:08:50;5.70;;;2.67;;
8317;SDS011;4196;48.926;8.964;2024-03-25T05:11:36;8.33;;;2.40;;
8317;SDS011;4196;48.926;8.964;2024-03-25T05:14:21;4.23;;;2.50;;
8317;SDS011;4196;48.926;8.964;2024-03-25T05:17:06;4.23;;;2.17;;
8317;SDS011;4196;48.926;8.964;2024-03-25T05:19:54;4.77;;;2.47;;
8317;SDS011;4196;48.926;8.964;2024-03-25T05:22:39;5.20;;;2.47;;
8317;SDS011;4196;48.926;8.964;2024-03-25T05:25:25;3.53;;;2.43;;
8317;SDS011;4196;48.926;8.964;2024-03-25T05:28:13;8.27;;;2.80;;
8317;SDS011;4196;48.926;8.964;2024-03-25T05:31:05;10.20;;;2.83;;
8317;SDS011;4196;48.926;8.964;2024-03-25T05:33:52;5.93;;;2.80;;
8317;SDS011;4196;48.926;8.964;2024-03-25T05:36:37;7.57;;;3.07;;
8317;SDS011;4196;48.926;8.964;2024-03-25T05:39:23;5.20;;;2.30;;
8317;SDS011;4196;48.926;8.964;2024-03-25T05:42:08;5.33;;;2.73;;
8317;SDS011;4196;48.926;8.964;2024-03-25T05:44:53;4.87;;;2.67;;
8317;SDS011;4196;48.926;8.964;2024-03-25T05:47:39;4.33;;;2.60;;
8317;SDS011;4196;48.926;8.964;2024-03-25T05:50:24;9.83;;;2.77;;
8317;SDS011;4196;48.926;8.964;2024-03-25T05:53:09;8.63;;;3.47;;
8317;SDS011;4196;48.926;8.964;2024-03-25T05:55:55;3.37;;;2.50;;
8317;SDS011;4196;48.926;8.964;2024-03-25T05:58:41;6.53;;;3.53;;
8317;SDS011;4196;48.926;8.964;2024-03-25T06:01:26;13.43;;;7.23;;
8317;SDS011;4196;48.926;8.964;2024-03-25T06:04:12;7.00;;;3.20;;
8317;SDS011;4196;48.926;8.964;2024-03-25T06:06:57;11.40;;;5.80;;
8317;SDS011;4196;48.926;8.964;2024-03-25T06:09:43;9.80;;;4.50;;
8317;SDS011;4196;48.926;8.964;2024-03-25T06:12:29;9.13;;;3.43;;
8317;SDS011;4196;48.926;8.964;2024-03-25T06:15:15;4.83;;;2.87;;
8317;SDS011;4196;48.926;8.964;2024-03-25T06:18:00;5.27;;;2.97;;
8317;SDS011;4196;48.926;8.964;2024-03-25T06:20:45;7.27;;;3.13;;
8317;SDS011;4196;48.926;8.964;2024-03-25T06:23:31;4.33;;;2.43;;
8317;SDS011;4196;48.926;8.964;2024-03-25T06:26:16;4.50;;;2.70;;
8317;SDS011;4196;48.926;8.964;2024-03-25T06:29:02;5.23;;;3.07;;
8317;SDS011;4196;48.926;8.964;2024-03-25T06:31:48;5.73;;;2.70;;
8317;SDS011;4196;48.926;8.964;2024-03-25T06:34:52;6.17;;;2.30;;
8317;SDS011;4196;48.926;8.964;2024-03-25T06:37:38;5.93;;;3.07;;
8317;SDS011;4196;48.926;8.964;2024-03-25T06:40:23;4.03;;;3.07;;
8317;SDS011;4196;48.926;8.964;2024-03-25T06:43:08;3.97;;;2.83;;
8317;SDS011;4196;48.926;8.964;2024-03-25T06:45:54;5.83;;;2.93;;
8317;SDS011;4196;48.926;8.964;2024-03-25T06:48:39;3.77;;;2.17;;
8317;SDS011;4196;48.926;8.964;2024-03-25T06:51:25;4.60;;;2.53;;
8317;SDS011;4196;48.926;8.964;2024-03-25T06:54:11;8.67;;;3.17;;
8317;SDS011;4196;48.926;8.964;2024-03-25T06:56:57;4.30;;;2.47;;
8317;SDS011;4196;48.926;8.964;2024-03-25T06:59:42;6.07;;;2.23;;
8317;SDS011;4196;48.926;8.964;2024-03-25T07:02:27;5.17;;;2.80;;
8317;SDS011;4196;48.926;8.964;2024-03-25T07:05:13;5.90;;;2.50;;
8317;SDS011;4196;48.926;8.964;2024-03-25T07:07:59;9.70;;;4.50;;
8317;SDS011;4196;48.926;8.964;2024-03-25T07:10:44;5.77;;;2.93;;
8317;SDS011;4196;48.926;8.964;2024-03-25T07:13:30;5.30;;;2.73;;
8317;SDS011;4196;48.926;8.964;2024-03-25T07:16:15;6.13;;;3.00;;
8317;SDS011;4196;48.926;8.964;2024-03-25T07:19:01;5.20;;;2.37;;
8317;SDS011;4196;48.926;8.964;2024-03-25T07:21:46;3.03;;;2.07;;
8317;SDS011;4196;48.926;8.964;2024-03-25T07:24:32;4.17;;;2.30;;
8317;SDS011;4196;48.926;8.964;2024-03-25T07:27:17;3.67;;;1.97;;
8317;SDS011;4196;48.926;8.964;2024-03-25T07:30:03;5.27;;;2.30;;
8317;SDS011;4196;48.926;8.964;2024-03-25T07:32:51;3.80;;;2.30;;
8317;SDS011;4196;48.926;8.964;2024-03-25T07:35:36;3.57;;;2.00;;
8317;SDS011;4196;48.926;8.964;2024-03-25T07:38:22;4.97;;;2.30;;
8317;SDS011;4196;48.926;8.964;2024-03-25T07:41:07;4.90;;;2.30;;
8317;SDS011;4196;48.926;8.964;2024-03-25T07:43:53;3.20;;;2.20;;
8317;SDS011;4196;48.926;8.964;2024-03-25T07:46:39;3.40;;;1.87;;
8317;SDS011;4196;48.926;8.964;2024-03-25T07:49:25;5.67;;;2.30;;
8317;SDS011;4196;48.926;8.964;2024-03-25T07:52:10;3.07;;;1.70;;
8317;SDS011;4196;48.926;8.964;2024-03-25T07:54:55;4.17;;;2.30;;
8317;SDS011;4196;48.926;8.964;2024-03-25T07:57:40;3.00;;;1.70;;
8317;SDS011;4196;48.926;8.964;2024-03-25T08:00:26;4.33;;;2.77;;
8317;SDS011;4196;48.926;8.964;2024-03-25T08:03:11;3.83;;;1.60;;
8317;SDS011;4196;48.926;8.964;2024-03-25T08:05:57;4.40;;;1.70;;
8317;SDS011;4196;48.926;8.964;2024-03-25T08:08:43;4.83;;;1.60;;
8317;SDS011;4196;48.926;8.964;2024-03-25T08:11:28;2.33;;;1.70;;
8317;SDS011;4196;48.926;8.964;2024-03-25T08:14:14;2.67;;;1.57;;
8317;SDS011;4196;48.926;8.964;2024-03-25T08:16:59;3.33;;;2.07;;
8317;SDS011;4196;48.926;8.964;2024-03-25T08:19:44;2.27;;;1.60;;
8317;SDS011;4196;48.926;8.964;2024-03-25T08:22:29;1.80;;;1.50;;
8317;SDS011;4196;48.926;8.964;2024-03-25T08:25:15;4.47;;;1.40;;
8317;SDS011;4196;48.926;8.964;2024-03-25T08:28:00;2.93;;;1.63;;
8317;SDS011;4196;48.926;8.964;2024-03-25T08:30:46;3.03;;;1.33;;
8317;SDS011;4196;48.926;8.964;2024-03-25T08:33:31;7.63;;;1.37;;
8317;SDS011;4196;48.926;8.964;2024-03-25T08:36:17;2.60;;;1.43;;
8317;SDS011;4196;48.926;8.964;2024-03-25T08:39:06;6.27;;;1.43;;
8317;SDS011;4196;48.926;8.964;2024-03-25T08:41:51;3.53;;;1.97;;
8317;SDS011;4196;48.926;8.964;2024-03-25T08:44:36;1.77;;;1.17;;
8317;SDS011;4196;48.926;8.964;2024-03-25T08:47:22;6.93;;;2.17;;
8317;SDS011;4196;48.926;8.964;2024-03-25T08:50:08;4.37;;;1.10;;
8317;SDS011;4196;48.926;8.964;2024-03-25T08:52:53;3.77;;;1.20;;
8317;SDS011;4196;48.926;8.964;2024-03-25T08:55:43;1.63;;;1.23;;
8317;SDS011;4196;48.926;8.964;2024-03-25T08:58:30;2.63;;;1.20;;
8317;SDS011;4196;48.926;8.964;2024-03-25T09:01:16;7.60;;;2.53;;
8317;SDS011;4196;48.926;8.964;2024-03-25T09:04:01;2.73;;;1.10;;
8317;SDS011;4196;48.926;8.964;2024-03-25T09:06:47;1.27;;;0.80;;
8317;SDS011;4196;48.926;8.964;2024-03-25T09:09:33;1.70;;;1.60;;
8317;SDS011;4196;48.926;8.964;2024-03-25T09:12:37;2.97;;;1.30;;
8317;SDS011;4196;48.926;8.964;2024-03-25T09:15:23;6.63;;;1.30;;
8317;SDS011;4196;48.926;8.964;2024-03-25T09:18:09;2.33;;;1.07;;
8317;SDS011;4196;48.926;8.964;2024-03-25T09:20:54;1.57;;;1.30;;
8317;SDS011;4196;48.926;8.964;2024-03-25T09:23:40;2.40;;;1.17;;
8317;SDS011;4196;48.926;8.964;2024-03-25T09:26:26;1.73;;;1.10;;
8317;SDS011;4196;48.926;8.964;2024-03-25T09:29:12;2.10;;;1.57;;
8317;SDS011;4196;48.926;8.964;2024-03-25T09:31:58;1.47;;;1.00;;
8317;SDS011;4196;48.926;8.964;2024-03-25T09:34:43;2.57;;;1.20;;
8317;SDS011;4196;48.926;8.964;2024-03-25T09:37:32;2.83;;;1.93;;
8317;SDS011;4196;48.926;8.964;2024-03-25T09:40:18;1.20;;;1.10;;
8317;SDS011;4196;48.926;8.964;2024-03-25T09:43:03;1.70;;;1.40;;
8317;SDS011;4196;48.926;8.964;2024-03-25T09:45:51;2.00;;;1.60;;
8317;SDS011;4196;48.926;8.964;2024-03-25T09:48:37;6.57;;;2.33;;
8317;SDS011;4196;48.926;8.964;2024-03-25T09:51:23;2.50;;;1.50;;
8317;SDS011;4196;48.926;8.964;2024-03-25T09:54:08;3.17;;;1.37;;
8317;SDS011;4196;48.926;8.964;2024-03-25T09:56:55;1.80;;;1.33;;
8317;SDS011;4196;48.926;8.964;2024-03-25T09:59:42;3.97;;;1.37;;
8317;SDS011;4196;48.926;8.964;2024-03-25T10:02:28;3.67;;;1.40;;
8317;SDS011;4196;48.926;8.964;2024-03-25T10:05:15;1.97;;;1.20;;
8317;SDS011;4196;48.926;8.964;2024-03-25T10:08:00;3.80;;;1.30;;
8317;SDS011;4196;48.926;8.964;2024-03-25T10:10:45;3.57;;;1.43;;
8317;SDS011;4196;48.926;8.964;2024-03-25T10:13:31;2.90;;;1.37;;
8317;SDS011;4196;48.926;8.964;2024-03-25T10:16:16;5.10;;;1.30;;
8317;SDS011;4196;48.926;8.964;2024-03-25T10:19:01;1.67;;;1.17;;
8317;SDS011;4196;48.926;8.964;2024-03-25T10:21:47;3.77;;;1.40;;
8317;SDS011;4196;48.926;8.964;2024-03-25T10:24:42;3.00;;;2.33;;
8317;SDS011;4196;48.926;8.964;2024-03-25T10:27:28;2.23;;;1.30;;
8317;SDS011;4196;48.926;8.964;2024-03-25T10:30:15;4.10;;;1.60;;
8317;SDS011;4196;48.926;8.964;2024-03-25T10:33:04;4.20;;;1.57;;
8317;SDS011;4196;48.926;8.964;2024-03-25T10:35:51;5.00;;;1.37;;
8317;SDS011;4196;48.926;8.964;2024-03-25T10:38:37;2.43;;;1.30;;
8317;SDS011;4196;48.926;8.964;2024-03-25T10:41:23;2.00;;;1.23;;
8317;SDS011;4196;48.926;8.964;2024-03-25T10:44:11;2.47;;;1.30;;
8317;SDS011;4196;48.926;8.964;2024-03-25T10:47:01;2.67;;;1.20;;
8317;SDS011;4196;48.926;8.964;2024-03-25T10:49:55;3.13;;;1.20;;
8317;SDS011;4196;48.926;8.964;2024-03-25T10:52:43;2.50;;;1.20;;
8317;SDS011;4196;48.926;8.964;2024-03-25T10:55:28;4.27;;;1.20;;
8317;SDS011;4196;48.926;8.964;2024-03-25T10:58:16;2.57;;;1.10;;
8317;SDS011;4196;48.926;8.964;2024-03-25T11:01:02;2.00;;;1.50;;
8317;SDS011;4196;48.926;8.964;2024-03-25T11:03:48;2.47;;;1.37;;
8317;SDS011;4196;48.926;8.964;2024-03-25T11:06:35;3.43;;;1.30;;
8317;SDS011;4196;48.926;8.964;2024-03-25T11:09:24;4.30;;;1.60;;
8317;SDS011;4196;48.926;8.964;2024-03-25T11:12:11;2.47;;;1.40;;
8317;SDS011;4196;48.926;8.964;2024-03-25T11:15:00;1.83;;;1.30;;
8317;SDS011;4196;48.926;8.964;2024-03-25T11:17:49;1.57;;;1.10;;
8317;SDS011;4196;48.926;8.964;2024-03-25T11:20:35;1.50;;;1.30;;
8317;SDS011;4196;48.926;8.964;2024-03-25T11:23:20;2.53;;;1.30;;
8317;SDS011;4196;48.926;8.964;2024-03-25T11:26:16;2.70;;;1.37;;
8317;SDS011;4196;48.926;8.964;2024-03-25T11:29:05;2.03;;;1.43;;
8317;SDS011;4196;48.926;8.964;2024-03-25T11:31:50;2.60;;;1.40;;
8317;SDS011;4196;48.926;8.964;2024-03-25T11:34:38;5.07;;;1.60;;
8317;SDS011;4196;48.926;8.964;2024-03-25T11:37:23;4.73;;;2.27;;
8317;SDS011;4196;48.926;8.964;2024-03-25T11:40:09;1.50;;;1.30;;
8317;SDS011;4196;48.926;8.964;2024-03-25T11:42:58;5.87;;;2.00;;
8317;SDS011;4196;48.926;8.964;2024-03-25T11:45:46;2.70;;;1.17;;
8317;SDS011;4196;48.926;8.964;2024-03-25T11:48:32;2.60;;;1.50;;
8317;SDS011;4196;48.926;8.964;2024-03-25T11:51:18;1.47;;;1.30;;
8317;SDS011;4196;48.926;8.964;2024-03-25T11:54:04;3.60;;;1.33;;
8317;SDS011;4196;48.926;8.964;2024-03-25T11:56:50;2.87;;;1.50;;
8317;SDS011;4196;48.926;8.964;2024-03-25T11:59:35;2.07;;;1.40;;
8317;SDS011;4196;48.926;8.964;2024-03-25T12:02:21;1.33;;;1.10;;
8317;SDS011;4196;48.926;8.964;2024-03-25T12:05:07;1.77;;;1.30;;
8317;SDS011;4196;48.926;8.964;2024-03-25T12:07:52;1.30;;;1.20;;
8317;SDS011;4196;48.926;8.964;2024-03-25T12:10:38;3.97;;;1.80;;
8317;SDS011;4196;48.926;8.964;2024-03-25T12:13:42;2.07;;;1.30;;
8317;SDS011;4196;48.926;8.964;2024-03-25T12:16:28;2.97;;;1.30;;
8317;SDS011;4196;48.926;8.964;2024-03-25T12:19:15;1.97;;;1.27;;
8317;SDS011;4196;48.926;8.964;2024-03-25T12:22:01;5.77;;;2.67;;
8317;SDS011;4196;48.926;8.964;2024-03-25T12:24:48;3.97;;;1.80;;
8317;SDS011;4196;48.926;8.964;2024-03-25T12:27:35;3.70;;;1.43;;
8317;SDS011;4196;48.926;8.964;2024-03-25T12:30:22;1.40;;;1.30;;
8317;SDS011;4196;48.926;8.964;2024-03-25T12:33:07;2.37;;;1.60;;
8317;SDS011;4196;48.926;8.964;2024-03-25T12:35:52;2.17;;;1.20;;
8317;SDS011;4196;48.926;8.964;2024-03-25T12:38:38;2.43;;;2.03;;
8317;SDS011;4196;48.926;8.964;2024-03-25T12:41:24;2.47;;;1.60;;
8317;SDS011;4196;48.926;8.964;2024-03-25T12:44:09;2.53;;;1.90;;
8317;SDS011;4196;48.926;8.964;2024-03-25T12:46:56;2.00;;;1.67;;
8317;SDS011;4196;48.926;8.964;2024-03-25T12:49:44;1.60;;;1.50;;
8317;SDS011;4196;48.926;8.964;2024-03-25T12:52:29;2.07;;;1.40;;
8317;SDS011;4196;48.926;8.964;2024-03-25T12:55:14;2.47;;;1.53;;
8317;SDS011;4196;48.926;8.964;2024-03-25T12:58:00;1.60;;;1.50;;
8317;SDS011;4196;48.926;8.964;2024-03-25T13:00:45;2.83;;;1.43;;
8317;SDS011;4196;48.926;8.964;2024-03-25T13:03:31;1.73;;;1.23;;
8317;SDS011;4196;48.926;8.964;2024-03-25T13:06:16;1.47;;;1.20;;
8317;SDS011;4196;48.926;8.964;2024-03-25T13:09:02;2.67;;;2.17;;
8317;SDS011;4196;48.926;8.964;2024-03-25T13:11:47;1.53;;;1.40;;
8317;SDS011;4196;48.926;8.964;2024-03-25T13:14:33;2.40;;;1.50;;
8317;SDS011;4196;48.926;8.964;2024-03-25T13:17:18;1.97;;;1.50;;
8317;SDS011;4196;48.926;8.964;2024-03-25T13:20:04;3.13;;;1.60;;
8317;SDS011;4196;48.926;8.964;2024-03-25T13:22:49;2.70;;;1.50;;
8317;SDS011;4196;48.926;8.964;2024-03-25T13:25:40;1.30;;;1.20;;
8317;SDS011;4196;48.926;8.964;2024-03-25T13:28:26;1.80;;;1.57;;
8317;SDS011;4196;48.926;8.964;2024-03-25T13:31:11;2.03;;;1.90;;
8317;SDS011;4196;48.926;8.964;2024-03-25T13:33:57;1.60;;;1.50;;
8317;SDS011;4196;48.926;8.964;2024-03-25T13:36:42;3.17;;;1.40;;
8317;SDS011;4196;48.926;8.964;2024-03-25T13:39:28;4.37;;;1.67;;
8317;SDS011;4196;48.926;8.964;2024-03-25T13:42:13;2.67;;;1.60;;
8317;SDS011;4196;48.926;8.964;2024-03-25T13:44:59;1.77;;;1.63;;
8317;SDS011;4196;48.926;8.964;2024-03-25T13:47:44;4.50;;;1.63;;
8317;SDS011;4196;48.926;8.964;2024-03-25T13:50:30;4.30;;;1.80;;
8317;SDS011;4196;48.926;8.964;2024-03-25T13:53:15;3.40;;;2.00;;
8317;SDS011;4196;48.926;8.964;2024-03-25T13:56:00;1.97;;;1.77;;
8317;SDS011;4196;48.926;8.964;2024-03-25T13:58:46;4.03;;;1.60;;
8317;SDS011;4196;48.926;8.964;2024-03-25T14:01:32;2.50;;;1.70;;
8317;SDS011;4196;48.926;8.964;2024-03-25T14:04:17;4.40;;;1.97;;
8317;SDS011;4196;48.926;8.964;2024-03-25T14:07:03;3.37;;;2.10;;
8317;SDS011;4196;48.926;8.964;2024-03-25T14:09:48;2.10;;;1.70;;
8317;SDS011;4196;48.926;8.964;2024-03-25T14:12:33;2.67;;;1.80;;
8317;SDS011;4196;48.926;8.964;2024-03-25T14:15:19;3.27;;;1.77;;
8317;SDS011;4196;48.926;8.964;2024-03-25T14:18:04;2.43;;;1.50;;
8317;SDS011;4196;48.926;8.964;2024-03-25T14:20:53;2.07;;;1.50;;
8317;SDS011;4196;48.926;8.964;2024-03-25T14:23:38;2.20;;;1.57;;
8317;SDS011;4196;48.926;8.964;2024-03-25T14:26:28;4.07;;;1.80;;
8317;SDS011;4196;48.926;8.964;2024-03-25T14:29:13;1.90;;;1.50;;
8317;SDS011;4196;48.926;8.964;2024-03-25T14:31:59;2.03;;;1.67;;
8317;SDS011;4196;48.926;8.964;2024-03-25T14:34:44;1.87;;;1.67;;
8317;SDS011;4196;48.926;8.964;2024-03-25T14:37:30;5.17;;;1.80;;
8317;SDS011;4196;48.926;8.964;2024-03-25T14:40:15;3.27;;;1.87;;
8317;SDS011;4196;48.926;8.964;2024-03-25T14:43:04;3.00;;;1.67;;
8317;SDS011;4196;48.926;8.964;2024-03-25T14:45:49;2.83;;;1.77;;
8317;SDS011;4196;48.926;8.964;2024-03-25T14:48:34;3.63;;;2.40;;
8317;SDS011;4196;48.926;8.964;2024-03-25T14:51:20;1.77;;;1.57;;
8317;SDS011;4196;48.926;8.964;2024-03-25T14:54:05;3.60;;;1.70;;
8317;SDS011;4196;48.926;8.964;2024-03-25T14:56:52;1.60;;;1.47;;
8317;SDS011;4196;48.926;8.964;2024-03-25T14:59:37;2.40;;;1.50;;
8317;SDS011;4196;48.926;8.964;2024-03-25T15:02:22;1.70;;;1.40;;
8317;SDS011;4196;48.926;8.964;2024-03-25T15:05:07;1.60;;;1.50;;
8317;SDS011;4196;48.926;8.964;2024-03-25T15:07:54;1.60;;;1.50;;
8317;SDS011;4196;48.926;8.964;2024-03-25T15:10:39;3.40;;;1.53;;
8317;SDS011;4196;48.926;8.964;2024-03-25T15:13:25;4.07;;;1.50;;
8317;SDS011;4196;48.926;8.964;2024-03-25T15:16:10;2.33;;;1.70;;
8317;SDS011;4196;48.926;8.964;2024-03-25T15:18:55;1.90;;;1.43;;
8317;SDS011;4196;48.926;8.964;2024-03-25T15:21:40;3.07;;;1.40;;
8317;SDS011;4196;48.926;8.964;2024-03-25T15:24:26;2.50;;;1.53;;
8317;SDS011;4196;48.926;8.964;2024-03-25T15:27:11;2.50;;;1.37;;
8317;SDS011;4196;48.926;8.964;2024-03-25T15:29:56;1.77;;;1.67;;
8317;SDS011;4196;48.926;8.964;2024-03-25T15:32:42;1.97;;;1.40;;
8317;SDS011;4196;48.926;8.964;2024-03-25T15:35:27;2.27;;;2.00;;
8317;SDS011;4196;48.926;8.964;2024-03-25T15:38:12;2.63;;;1.87;;
8317;SDS011;4196;48.926;8.964;2024-03-25T15:40:58;2.30;;;1.43;;
8317;SDS011;4196;48.926;8.964;2024-03-25T15:43:43;1.70;;;1.47;;
8317;SDS011;4196;48.926;8.964;2024-03-25T15:46:28;4.23;;;1.50;;
8317;SDS011;4196;48.926;8.964;2024-03-25T15:49:14;5.30;;;1.80;;
8317;SDS011;4196;48.926;8.964;2024-03-25T15:51:59;1.60;;;1.47;;
8317;SDS011;4196;48.926;8.964;2024-03-25T15:54:44;2.40;;;1.60;;
8317;SDS011;4196;48.926;8.964;2024-03-25T15:57:30;3.20;;;1.40;;
8317;SDS011;4196;48.926;8.964;2024-03-25T16:00:15;3.23;;;1.47;;
8317;SDS011;4196;48.926;8.964;2024-03-25T16:03:00;1.30;;;1.20;;
8317;SDS011;4196;48.926;8.964;2024-03-25T16:05:46;1.40;;;1.30;;
8317;SDS011;4196;48.926;8.964;2024-03-25T16:08:31;1.73;;;1.63;;
8317;SDS011;4196;48.926;8.964;2024-03-25T16:11:17;1.40;;;1.30;;
8317;SDS011;4196;48.926;8.964;2024-03-25T16:14:03;2.07;;;1.30;;
8317;SDS011;4196;48.926;8.964;2024-03-25T16:16:48;3.40;;;1.70;;
8317;SDS011;4196;48.926;8.964;2024-03-25T16:19:33;2.50;;;1.67;;
8317;SDS011;4196;48.926;8.964;2024-03-25T16:22:19;1.57;;;1.47;;
8317;SDS011;4196;48.926;8.964;2024-03-25T16:25:04;4.30;;;1.47;;
8317;SDS011;4196;48.926;8.964;2024-03-25T16:27:50;1.20;;;1.10;;
8317;SDS011;4196;48.926;8.964;2024-03-25T16:30:36;2.10;;;1.60;;
8317;SDS011;4196;48.926;8.964;2024-03-25T16:33:21;1.33;;;1.20;;
8317;SDS011;4196;48.926;8.964;2024-03-25T16:36:07;4.17;;;1.30;;
8317;SDS011;4196;48.926;8.964;2024-03-25T16:38:53;1.13;;;1.00;;
8317;SDS011;4196;48.926;8.964;2024-03-25T16:41:39;1.43;;;1.33;;
8317;SDS011;4196;48.926;8.964;2024-03-25T16:44:24;4.07;;;1.60;;
8317;SDS011;4196;48.926;8.964;2024-03-25T16:47:10;2.00;;;1.27;;
8317;SDS011;4196;48.926;8.964;2024-03-25T16:49:56;1.70;;;1.43;;
8317;SDS011;4196;48.926;8.964;2024-03-25T16:52:42;2.63;;;1.70;;
8317;SDS011;4196;48.926;8.964;2024-03-25T16:55:29;1.60;;;1.30;;
8317;SDS011;4196;48.926;8.964;2024-03-25T16:58:15;1.90;;;1.40;;
8317;SDS011;4196;48.926;8.964;2024-03-25T17:01:00;1.93;;;1.57;;
8317;SDS011;4196;48.926;8.964;2024-03-25T17:03:45;1.53;;;1.37;;
8317;SDS011;4196;48.926;8.964;2024-03-25T17:06:31;2.80;;;1.50;;
8317;SDS011;4196;48.926;8.964;2024-03-25T17:09:16;2.30;;;1.23;;
8317;SDS011;4196;48.926;8.964;2024-03-25T17:12:03;1.93;;;1.60;;